Latest Weather Observations for St Kilda Harbour RMYS

IDV60901

Issued at 4:11 am EDT Wednesday 18 October 2017 (issued every 10 minutes, with the page automatically refreshed every 10 minutes)

About weather observations | Map of Melbourne area stations | Latest observations for Melbourne area | Other Formats
Station Details ID: 086220 Name: ST KILDA HARBOUR - RMYS Lat: -37.86 Lon: 144.96 Height: 6.4 m
Data from the previous 72 hours. | See also: Recent months for locations in Victoria
Date/Time
EDT
Temp
°C
App
Temp
°C
Dew
Point
°C
Rel
Hum
%
Delta-T
°C
Wind Press
QNH
hPa
Press
MSL
hPa
Rain since
9am
mm
Dir  Spd
km/h
Gust
km/h
Spd
kts
Gust
kts
18/04:00am - - - - - NNE 15 20 8 11 - - -
18/03:30am - - - - - NNE 15 19 8 10 - - -
18/03:00am - - - - - NNE 17 22 9 12 - - -
18/02:30am - - - - - NNE 15 19 8 10 - - -
18/02:00am - - - - - NNE 17 22 9 12 - - -
18/01:30am - - - - - NNE 15 20 8 11 - - -
18/01:00am - - - - - NNE 13 17 7 9 - - -
18/12:30am - - - - - NE 17 20 9 11 - - -
18/12:00am - - - - - NNE 11 15 6 8 - - -
 
Date/Time
EDT
Temp
°C
App
Temp
°C
Dew
Point
°C
Rel
Hum
%
Delta-T
°C
Wind Press
QNH
hPa
Press
MSL
hPa
Rain since
9am
mm
Dir  Spd
km/h
Gust
km/h
Spd
kts
Gust
kts
17/11:30pm - - - - - N 9 9 5 5 - - -
17/11:00pm - - - - - N 7 9 4 5 - - -
17/10:30pm - - - - - NNE 9 9 5 5 - - -
17/10:00pm - - - - - NNE 6 7 3 4 - - -
17/09:30pm - - - - - NE 6 7 3 4 - - -
17/09:00pm - - - - - NE 7 9 4 5 - - -
17/08:30pm - - - - - NE 6 7 3 4 - - -
17/08:00pm - - - - - NNE 7 11 4 6 - - -
17/07:30pm - - - - - N 13 17 7 9 - - -
17/07:00pm - - - - - NNE 13 20 7 11 - - -
17/06:30pm - - - - - N 17 24 9 13 - - -
17/06:00pm - - - - - N 9 19 5 10 - - -
17/05:30pm - - - - - NNE 15 24 8 13 - - -
17/05:00pm - - - - - NNE 24 32 13 17 - - -
17/04:30pm - - - - - NNE 24 39 13 21 - - -
17/04:00pm - - - - - NNW 19 30 10 16 - - -
17/03:30pm - - - - - N 17 28 9 15 - - -
17/03:00pm - - - - - N 20 32 11 17 - - -
17/02:30pm - - - - - N 17 32 9 17 - - -
17/02:00pm - - - - - N 24 39 13 21 - - -
17/01:30pm - - - - - N 19 39 10 21 - - -
17/01:00pm - - - - - N 20 32 11 17 - - -
17/12:30pm - - - - - N 20 32 11 17 - - -
17/12:00pm - - - - - N 24 41 13 22 - - -
17/11:30am - - - - - N 26 43 14 23 - - -
17/11:00am - - - - - N 30 43 16 23 - - -
17/10:30am - - - - - N 24 39 13 21 - - -
17/10:00am - - - - - N 32 44 17 24 - - -
17/09:30am - - - - - N 19 28 10 15 - - -
17/09:00am - - - - - NNE 13 17 7 9 - - -
17/08:30am - - - - - NNE 11 17 6 9 - - -
17/08:00am - - - - - NNE 13 19 7 10 - - -
17/07:30am - - - - - NNE 9 13 5 7 - - -
17/07:00am - - - - - NNE 13 17 7 9 - - -
17/06:30am - - - - - NNE 11 15 6 8 - - -
17/06:00am - - - - - NNE 15 19 8 10 - - -
17/05:30am - - - - - NNE 15 19 8 10 - - -
17/05:00am - - - - - NNE 6 9 3 5 - - -
17/04:30am - - - - - NE 6 7 3 4 - - -
17/04:00am - - - - - NNE 7 13 4 7 - - -
17/03:30am - - - - - NNE 7 11 4 6 - - -
17/03:00am - - - - - NNE 7 9 4 5 - - -
17/02:30am - - - - - NNE 6 7 3 4 - - -
17/02:00am - - - - - NNW 6 9 3 5 - - -
17/01:30am - - - - - NNW 9 11 5 6 - - -
17/01:00am - - - - - NW 7 9 4 5 - - -
17/12:30am - - - - - WNW 9 13 5 7 - - -
17/12:00am - - - - - WNW 9 13 5 7 - - -
 
Date/Time
EDT
Temp
°C
App
Temp
°C
Dew
Point
°C
Rel
Hum
%
Delta-T
°C
Wind Press
QNH
hPa
Press
MSL
hPa
Rain since
9am
mm
Dir  Spd
km/h
Gust
km/h
Spd
kts
Gust
kts
16/11:30pm - - - - - WSW 11 13 6 7 - - -
16/11:00pm - - - - - WNW 13 17 7 9 - - -
16/10:30pm - - - - - E 15 19 8 10 - - -
16/10:00pm - - - - - E 19 26 10 14 - - -
16/09:30pm - - - - - E 19 26 10 14 - - -
16/09:00pm - - - - - ESE 19 24 10 13 - - -
16/08:30pm - - - - - ESE 15 20 8 11 - - -
16/08:00pm - - - - - SE 15 22 8 12 - - -
16/07:30pm - - - - - SSE 20 26 11 14 - - -
16/07:00pm - - - - - S 22 26 12 14 - - -
16/06:30pm - - - - - S 19 20 10 11 - - -
16/06:00pm - - - - - SSE 22 30 12 16 - - -
16/05:30pm - - - - - S 24 30 13 16 - - -
16/05:00pm - - - - - SSE 17 22 9 12 - - -
16/04:30pm - - - - - S 15 19 8 10 - - -
16/04:00pm - - - - - S 22 26 12 14 - - -
16/03:30pm - - - - - S 20 24 11 13 - - -
16/03:00pm - - - - - S 20 24 11 13 - - -
16/02:30pm - - - - - S 17 22 9 12 - - -
16/02:00pm - - - - - SSW 15 19 8 10 - - -
16/01:30pm - - - - - S 13 17 7 9 - - -
16/01:00pm - - - - - S 17 19 9 10 - - -
16/12:30pm - - - - - S 19 22 10 12 - - -
16/12:00pm - - - - - S 20 22 11 12 - - -
16/11:30am - - - - - S 19 20 10 11 - - -
16/11:00am - - - - - S 13 17 7 9 - - -
16/10:30am - - - - - S 7 9 4 5 - - -
16/10:00am - - - - - ENE 6 7 3 4 - - -
16/09:30am - - - - - NE 4 6 2 3 - - -
16/09:00am - - - - - NE 6 9 3 5 - - -
16/08:30am - - - - - NNE 7 11 4 6 - - -
16/08:00am - - - - - NNE 6 9 3 5 - - -
16/07:30am - - - - - NNE 7 11 4 6 - - -
16/07:00am - - - - - ENE 2 9 1 5 - - -
16/06:30am - - - - - NNE 6 9 3 5 - - -
16/06:00am - - - - - N 2 4 1 2 - - -
16/05:30am - - - - - NW 6 9 3 5 - - -
16/05:00am - - - - - NNE 2 4 1 2 - - -
16/04:30am - - - - - SE 4 6 2 3 - - -
16/04:00am - - - - - SE 4 6 2 3 - - -
16/03:30am - - - - - E 4 6 2 3 - - -
16/03:00am - - - - - E 4 6 2 3 - - -
16/02:30am - - - - - CALM 0 2 0 1 - - -
16/02:00am - - - - - ESE 4 6 2 3 - - -
16/01:30am - - - - - ESE 6 7 3 4 - - -
16/01:00am - - - - - SE 7 13 4 7 - - -
16/12:30am - - - - - SSE 7 13 4 7 - - -
16/12:00am - - - - - SE 7 11 4 6 - - -
 
Date/Time
EDT
Temp
°C
App
Temp
°C
Dew
Point
°C
Rel
Hum
%
Delta-T
°C
Wind Press
QNH
hPa
Press
MSL
hPa
Rain since
9am
mm
Dir  Spd
km/h
Gust
km/h
Spd
kts
Gust
kts
15/11:30pm - - - - - SSE 7 13 4 7 - - -
15/11:00pm - - - - - SE 6 9 3 5 - - -
15/10:30pm - - - - - SE 7 13 4 7 - - -
15/10:00pm - - - - - SSE 13 15 7 8 - - -
15/09:30pm - - - - - SE 11 13 6 7 - - -
15/09:00pm - - - - - SSE 17 20 9 11 - - -
15/08:30pm - - - - - S 24 28 13 15 - - -
15/08:00pm - - - - - S 26 30 14 16 - - -
15/07:30pm - - - - - S 26 32 14 17 - - -
15/07:00pm - - - - - S 24 28 13 15 - - -
15/06:30pm - - - - - S 24 28 13 15 - - -
15/06:00pm - - - - - S 26 30 14 16 - - -
15/05:30pm - - - - - SSW 32 37 17 20 - - -
15/05:00pm - - - - - SSW 32 35 17 19 - - -
15/04:30pm - - - - - SSW 32 35 17 19 - - -
15/04:00pm - - - - - S 28 33 15 18 - - -
15/03:30pm - - - - - S 30 33 16 18 - - -
15/03:00pm - - - - - SSW 26 28 14 15 - - -
15/02:30pm - - - - - SSW 19 22 10 12 - - -
15/02:00pm - - - - - SSW 19 22 10 12 - - -
15/01:30pm - - - - - SSW 19 20 10 11 - - -
15/01:00pm - - - - - SW 19 20 10 11 - - -
15/12:30pm - - - - - SSW 15 17 8 9 - - -
15/12:00pm - - - - - SSW 15 17 8 9 - - -
15/11:30am - - - - - SSW 13 17 7 9 - - -
15/11:00am - - - - - SSW 15 19 8 10 - - -
15/10:30am - - - - - SW 9 11 5 6 - - -
15/10:00am - - - - - SW 7 9 4 5 - - -
15/09:30am - - - - - WSW 7 9 4 5 - - -
15/09:00am - - - - - W 6 7 3 4 - - -
15/08:30am - - - - - W 4 4 2 2 - - -
15/08:00am - - - - - NW 4 6 2 3 - - -
15/07:30am - - - - - NNW 6 9 3 5 - - -
15/07:00am - - - - - NNW 6 9 3 5 - - -
15/06:30am - - - - - NW 6 9 3 5 - - -
15/06:00am - - - - - WNW 7 9 4 5 - - -
15/05:30am - - - - - WNW 9 11 5 6 - - -
15/05:00am - - - - - WNW 9 9 5 5 - - -
15/04:30am - - - - - WNW 7 11 4 6 - - -

Latest Capital City Observations: Canberra | Sydney | Melbourne | Brisbane | Adelaide | Perth | Hobart | Darwin

Other Formats:

Comma delimited format used in spreadsheet applications
http://www.bom.gov.au/fwo/IDV60901/IDV60901.95864.axf

JavaScript Object Notation format (JSON) in row-major order
http://www.bom.gov.au/fwo/IDV60901/IDV60901.95864.json